sensor_id;sensor_type;location;lat;lon;timestamp;pressure;altitude;pressure_sealevel;temperature;humidity
62980;BME280;49075;53.988;27.678;2022-10-10T00:03:52;996.1;;;4.5;72.3
62980;BME280;49075;53.988;27.678;2022-10-10T00:09:12;996.2;;;4.4;72.6
62980;BME280;49075;53.988;27.678;2022-10-10T00:14:18;996.2;;;4.3;72.7
62980;BME280;49075;53.988;27.678;2022-10-10T00:19:18;996.2;;;4.4;72.8
62980;BME280;49075;53.988;27.678;2022-10-10T00:24:12;996.2;;;4.3;72.5
62980;BME280;49075;53.988;27.678;2022-10-10T00:28:48;996.3;;;4.2;72.8
62980;BME280;49075;53.988;27.678;2022-10-10T00:33:54;996.4;;;4.1;72.8
62980;BME280;49075;53.988;27.678;2022-10-10T00:38:52;996.4;;;4;73
62980;BME280;49075;53.988;27.678;2022-10-10T00:44:05;996.4;;;3.9;73
62980;BME280;49075;53.988;27.678;2022-10-10T00:48:44;996.5;;;3.8;73.5
62980;BME280;49075;53.988;27.678;2022-10-10T00:54:18;996.5;;;3.8;73.2
62980;BME280;49075;53.988;27.678;2022-10-10T00:58:45;996.6;;;3.7;73.5
62980;BME280;49075;53.988;27.678;2022-10-10T01:04:40;996.6;;;3.7;73.4
62980;BME280;49075;53.988;27.678;2022-10-10T01:09:18;996.6;;;3.6;73.5
62980;BME280;49075;53.988;27.678;2022-10-10T01:14:24;996.6;;;3.6;73.4
62980;BME280;49075;53.988;27.678;2022-10-10T01:19:23;996.6;;;3.5;73.3
62980;BME280;49075;53.988;27.678;2022-10-10T01:24:27;996.6;;;3.5;73.7
62980;BME280;49075;53.988;27.678;2022-10-10T01:29:07;996.7;;;3.5;73.3
62980;BME280;49075;53.988;27.678;2022-10-10T01:35:26;996.7;;;3.4;73.8
62980;BME280;49075;53.988;27.678;2022-10-10T01:38:59;996.7;;;3.4;73.6
62980;BME280;49075;53.988;27.678;2022-10-10T01:44:06;996.8;;;3.4;73.9
62980;BME280;49075;53.988;27.678;2022-10-10T01:48:58;996.8;;;3.4;73.4
62980;BME280;49075;53.988;27.678;2022-10-10T01:54:21;996.9;;;3.3;73.9
62980;BME280;49075;53.988;27.678;2022-10-10T01:59:01;996.9;;;3.3;73.6
62980;BME280;49075;53.988;27.678;2022-10-10T02:04:01;996.9;;;3.2;74
62980;BME280;49075;53.988;27.678;2022-10-10T02:08:55;997;;;3.3;73.7
62980;BME280;49075;53.988;27.678;2022-10-10T02:13:59;997;;;3.2;74
62980;BME280;49075;53.988;27.678;2022-10-10T02:18:48;997.1;;;3.1;73.8
62980;BME280;49075;53.988;27.678;2022-10-10T02:23:53;997.1;;;3;73.9
62980;BME280;49075;53.988;27.678;2022-10-10T02:28:54;997.1;;;3;73.9
62980;BME280;49075;53.988;27.678;2022-10-10T02:34:17;997.1;;;2.9;73.9
62980;BME280;49075;53.988;27.678;2022-10-10T02:39:16;997.2;;;2.9;74.5
62980;BME280;49075;53.988;27.678;2022-10-10T02:44:16;997.2;;;2.9;74.2
62980;BME280;49075;53.988;27.678;2022-10-10T02:49:22;997.2;;;2.9;74.5
62980;BME280;49075;53.988;27.678;2022-10-10T02:54:20;997.2;;;2.8;73.9
62980;BME280;49075;53.988;27.678;2022-10-10T02:59:00;997.2;;;2.7;74.2
62980;BME280;49075;53.988;27.678;2022-10-10T03:03:52;997.2;;;2.7;74
62980;BME280;49075;53.988;27.678;2022-10-10T03:09:20;997.2;;;2.7;74.3
62980;BME280;49075;53.988;27.678;2022-10-10T03:14:20;997.2;;;2.7;73.8
62980;BME280;49075;53.988;27.678;2022-10-10T03:19:20;997.3;;;2.6;74.1
62980;BME280;49075;53.988;27.678;2022-10-10T03:24:22;997.3;;;2.6;74
62980;BME280;49075;53.988;27.678;2022-10-10T03:28:50;997.3;;;2.5;74.1
62980;BME280;49075;53.988;27.678;2022-10-10T03:34:22;997.3;;;2.5;73.8
62980;BME280;49075;53.988;27.678;2022-10-10T03:38:44;997.3;;;2.4;74
62980;BME280;49075;53.988;27.678;2022-10-10T03:44:22;997.3;;;2.4;74.1
62980;BME280;49075;53.988;27.678;2022-10-10T03:48:50;997.4;;;2.4;73.9
62980;BME280;49075;53.988;27.678;2022-10-10T03:53:54;997.4;;;2.4;73.9
62980;BME280;49075;53.988;27.678;2022-10-10T03:59:22;997.4;;;2.3;73.7
62980;BME280;49075;53.988;27.678;2022-10-10T04:03:54;997.4;;;2.3;73.7
62980;BME280;49075;53.988;27.678;2022-10-10T04:08:44;997.4;;;2.3;73.7
62980;BME280;49075;53.988;27.678;2022-10-10T04:14:22;997.5;;;2.2;73.8
62980;BME280;49075;53.988;27.678;2022-10-10T04:18:58;997.5;;;2.2;73.7
62980;BME280;49075;53.988;27.678;2022-10-10T04:24:22;997.6;;;2.2;73.8
62980;BME280;49075;53.988;27.678;2022-10-10T04:29:12;997.6;;;2.1;73.6
62980;BME280;49075;53.988;27.678;2022-10-10T04:33:52;997.7;;;2.1;73.7
62980;BME280;49075;53.988;27.678;2022-10-10T04:39:22;997.7;;;2.1;73.5
62980;BME280;49075;53.988;27.678;2022-10-10T04:44:22;997.7;;;2;73.7
62980;BME280;49075;53.988;27.678;2022-10-10T04:49:22;997.7;;;2.1;73.8
62980;BME280;49075;53.988;27.678;2022-10-10T04:53:56;997.7;;;2.3;74
62980;BME280;49075;53.988;27.678;2022-10-10T04:59:22;997.7;;;2.8;73.4
62980;BME280;49075;53.988;27.678;2022-10-10T05:04:04;997.8;;;3.3;72.6
62980;BME280;49075;53.988;27.678;2022-10-10T05:08:48;997.8;;;3.7;71.8
62980;BME280;49075;53.988;27.678;2022-10-10T05:14:22;997.7;;;4.4;70.4
62980;BME280;49075;53.988;27.678;2022-10-10T05:18:44;997.8;;;5.5;68.9
62980;BME280;49075;53.988;27.678;2022-10-10T05:24:20;997.8;;;6.6;66.1
62980;BME280;49075;53.988;27.678;2022-10-10T05:28:52;997.8;;;8;64.6
62980;BME280;49075;53.988;27.678;2022-10-10T05:34:10;997.9;;;9.2;61.1
62980;BME280;49075;53.988;27.678;2022-10-10T05:38:50;997.9;;;10.4;59.5
62980;BME280;49075;53.988;27.678;2022-10-10T05:44:22;998;;;11.4;55.4
62980;BME280;49075;53.988;27.678;2022-10-10T05:49:22;998;;;12.2;55.2
62980;BME280;49075;53.988;27.678;2022-10-10T05:53:50;998;;;13;52
62980;BME280;49075;53.988;27.678;2022-10-10T05:58:44;998;;;13.6;51.9
62980;BME280;49075;53.988;27.678;2022-10-10T06:04:20;998;;;14.3;49.2
62980;BME280;49075;53.988;27.678;2022-10-10T06:08:50;998.1;;;15.3;48.6
62980;BME280;49075;53.988;27.678;2022-10-10T06:14:20;998.1;;;15.9;45.8
62980;BME280;49075;53.988;27.678;2022-10-10T06:19:20;998.1;;;16.6;45.8
62980;BME280;49075;53.988;27.678;2022-10-10T06:24:02;998.1;;;17.3;43.4
62980;BME280;49075;53.988;27.678;2022-10-10T06:28:52;998.1;;;17.9;43.6
62980;BME280;49075;53.988;27.678;2022-10-10T06:33:50;998.1;;;18.5;41.1
62980;BME280;49075;53.988;27.678;2022-10-10T06:38:58;998.2;;;19.2;41.4
62980;BME280;49075;53.988;27.678;2022-10-10T06:43:50;998.2;;;19.7;39.3
62980;BME280;49075;53.988;27.678;2022-10-10T06:48:44;998.3;;;20.1;39.7
62980;BME280;49075;53.988;27.678;2022-10-10T06:54:20;998.2;;;20.5;37.1
62980;BME280;49075;53.988;27.678;2022-10-10T06:59:20;998.2;;;21;38.1
62980;BME280;49075;53.988;27.678;2022-10-10T07:03:50;998.2;;;21.5;36.1
62980;BME280;49075;53.988;27.678;2022-10-10T07:09:20;998.2;;;22.1;36.3
62980;BME280;49075;53.988;27.678;2022-10-10T07:14:20;998.3;;;22.6;34.4
62980;BME280;49075;53.988;27.678;2022-10-10T07:18:56;998.3;;;23;34.7
62980;BME280;49075;53.988;27.678;2022-10-10T07:24:20;998.3;;;23.3;33.2
62980;BME280;49075;53.988;27.678;2022-10-10T07:29:20;998.3;;;23.8;33.3
62980;BME280;49075;53.988;27.678;2022-10-10T07:34:20;998.3;;;24.4;31.5
62980;BME280;49075;53.988;27.678;2022-10-10T07:38:44;998.3;;;25.1;31.4
62980;BME280;49075;53.988;27.678;2022-10-10T07:43:44;998.4;;;25.6;29.9
62980;BME280;49075;53.988;27.678;2022-10-10T07:48:50;998.4;;;26.2;29.3
62980;BME280;49075;53.988;27.678;2022-10-10T07:53:52;998.3;;;26.5;28.8
62980;BME280;49075;53.988;27.678;2022-10-10T07:59:02;998.3;;;26.7;29
62980;BME280;49075;53.988;27.678;2022-10-10T08:03:54;998.3;;;27.2;27.6
62980;BME280;49075;53.988;27.678;2022-10-10T08:08:50;998.3;;;27.5;26.8
62980;BME280;49075;53.988;27.678;2022-10-10T08:13:52;998.4;;;27.6;27.3
62980;BME280;49075;53.988;27.678;2022-10-10T08:19:20;998.4;;;27.9;25.8
62980;BME280;49075;53.988;27.678;2022-10-10T08:24:02;998.4;;;28.1;26.4
62980;BME280;49075;53.988;27.678;2022-10-10T08:29:20;998.3;;;28.3;25
62980;BME280;49075;53.988;27.678;2022-10-10T08:33:55;998.3;;;28.4;25.8
62980;BME280;49075;53.988;27.678;2022-10-10T08:39:12;998.2;;;28.9;24.5
62980;BME280;49075;53.988;27.678;2022-10-10T08:43:54;998.2;;;29.4;24.5
62980;BME280;49075;53.988;27.678;2022-10-10T08:49:22;998.3;;;29.4;23.5
62980;BME280;49075;53.988;27.678;2022-10-10T08:54:20;998.3;;;29.3;24.1
62980;BME280;49075;53.988;27.678;2022-10-10T08:58:56;998.2;;;29.5;22.7
62980;BME280;49075;53.988;27.678;2022-10-10T09:03:54;998.2;;;29.3;23.1
62980;BME280;49075;53.988;27.678;2022-10-10T09:09:24;998.2;;;29.2;22.1
62980;BME280;49075;53.988;27.678;2022-10-10T09:14:03;998.2;;;29.4;21.4
62980;BME280;49075;53.988;27.678;2022-10-10T09:19:05;998.2;;;29.6;19.9
62980;BME280;49075;53.988;27.678;2022-10-10T09:24:02;998.2;;;29.8;19.8
62980;BME280;49075;53.988;27.678;2022-10-10T09:28:57;998.2;;;30;17.2
62980;BME280;49075;53.988;27.678;2022-10-10T09:33:52;998.2;;;28.9;18.3
62980;BME280;49075;53.988;27.678;2022-10-10T09:39:28;998.2;;;28.6;19
62980;BME280;49075;53.988;27.678;2022-10-10T09:43:44;998.2;;;29.3;18.9
62980;BME280;49075;53.988;27.678;2022-10-10T09:48:52;998.2;;;29.8;18.8
62980;BME280;49075;53.988;27.678;2022-10-10T09:53:45;998.2;;;29.4;18.5
62980;BME280;49075;53.988;27.678;2022-10-10T09:58:51;998.2;;;28.9;19.4
62980;BME280;49075;53.988;27.678;2022-10-10T10:04:22;998.2;;;29.3;19
62980;BME280;49075;53.988;27.678;2022-10-10T10:09:24;998.2;;;29.6;18.8
62980;BME280;49075;53.988;27.678;2022-10-10T10:14:25;998.2;;;29.7;18.4
62980;BME280;49075;53.988;27.678;2022-10-10T10:19:29;998.1;;;30;18.2
62980;BME280;49075;53.988;27.678;2022-10-10T10:24:01;998.1;;;30.1;17.7
62980;BME280;49075;53.988;27.678;2022-10-10T10:28:53;998.1;;;29.9;18.4
62980;BME280;49075;53.988;27.678;2022-10-10T10:33:55;998.1;;;30.7;17.3
62980;BME280;49075;53.988;27.678;2022-10-10T10:39:02;998.1;;;30;17.7
62980;BME280;49075;53.988;27.678;2022-10-10T10:45:02;998;;;29.5;17.6
62980;BME280;49075;53.988;27.678;2022-10-10T10:49:13;998;;;29.7;17.9
62980;BME280;49075;53.988;27.678;2022-10-10T10:54:59;998;;;30.6;16.7
62980;BME280;49075;53.988;27.678;2022-10-10T10:59:58;997.9;;;30.9;17
62980;BME280;49075;53.988;27.678;2022-10-10T11:08:56;997.8;;;29.6;17.9
62980;BME280;49075;53.988;27.678;2022-10-10T11:15:00;997.8;;;29.4;17.6
62980;BME280;49075;53.988;27.678;2022-10-10T11:19:40;997.8;;;29.3;18.2
62980;BME280;49075;53.988;27.678;2022-10-10T11:23:54;997.7;;;29.6;17.6
62980;BME280;49075;53.988;27.678;2022-10-10T11:29:27;997.7;;;28.8;18.4
62980;BME280;49075;53.988;27.678;2022-10-10T11:34:05;997.7;;;28.6;18.5
62980;BME280;49075;53.988;27.678;2022-10-10T11:39:03;997.7;;;28.2;18.7
62980;BME280;49075;53.988;27.678;2022-10-10T11:44:09;997.7;;;27.3;19
62980;BME280;49075;53.988;27.678;2022-10-10T11:49:57;997.6;;;25.8;20.3
62980;BME280;49075;53.988;27.678;2022-10-10T11:53:52;997.6;;;24.2;21.5
62980;BME280;49075;53.988;27.678;2022-10-10T11:58:54;997.5;;;22.8;22.8
62980;BME280;49075;53.988;27.678;2022-10-10T12:04:22;997.5;;;21.4;24.1
62980;BME280;49075;53.988;27.678;2022-10-10T12:08:55;997.5;;;20.2;25.3
62980;BME280;49075;53.988;27.678;2022-10-10T12:13:45;997.5;;;18.8;27.2
62980;BME280;49075;53.988;27.678;2022-10-10T12:19:21;997.5;;;17.6;28.9
62980;BME280;49075;53.988;27.678;2022-10-10T12:24:08;997.4;;;17.2;30.1
62980;BME280;49075;53.988;27.678;2022-10-10T12:28:59;997.4;;;16.6;30.5
62980;BME280;49075;53.988;27.678;2022-10-10T12:33:59;997.3;;;16.4;31.3
62980;BME280;49075;53.988;27.678;2022-10-10T12:49:22;997.3;;;15.6;33.2
62980;BME280;49075;53.988;27.678;2022-10-10T12:53:42;997.3;;;15.3;33.5
62980;BME280;49075;53.988;27.678;2022-10-10T12:59:03;997.3;;;15.1;34.3
62980;BME280;49075;53.988;27.678;2022-10-10T13:03:44;997.3;;;14.8;34.9
62980;BME280;49075;53.988;27.678;2022-10-10T13:09:15;997.2;;;14.6;35
62980;BME280;49075;53.988;27.678;2022-10-10T13:14:02;997.2;;;14.4;36
62980;BME280;49075;53.988;27.678;2022-10-10T13:18:58;997.1;;;14.4;36.8
62980;BME280;49075;53.988;27.678;2022-10-10T13:24:03;997;;;14.3;37.1
62980;BME280;49075;53.988;27.678;2022-10-10T13:28:50;997;;;14.2;37.5
62980;BME280;49075;53.988;27.678;2022-10-10T13:33:55;997;;;14.1;37.8
62980;BME280;49075;53.988;27.678;2022-10-10T13:38:50;997;;;14.2;38.4
62980;BME280;49075;53.988;27.678;2022-10-10T13:44:00;997;;;14.3;37.7
62980;BME280;49075;53.988;27.678;2022-10-10T13:48:56;997;;;14.3;38.1
62980;BME280;49075;53.988;27.678;2022-10-10T13:53:51;997;;;14.3;37.9
62980;BME280;49075;53.988;27.678;2022-10-10T13:59:06;996.9;;;14.2;39
62980;BME280;49075;53.988;27.678;2022-10-10T14:03:56;996.9;;;14;39.3
62980;BME280;49075;53.988;27.678;2022-10-10T14:09:05;996.9;;;13.9;39.7
62980;BME280;49075;53.988;27.678;2022-10-10T14:14:03;996.8;;;13.9;39.8
62980;BME280;49075;53.988;27.678;2022-10-10T14:19:24;996.8;;;13.6;40.1
62980;BME280;49075;53.988;27.678;2022-10-10T14:23:52;996.8;;;13.6;40.2
62980;BME280;49075;53.988;27.678;2022-10-10T14:29:12;996.8;;;13.7;40.5
62980;BME280;49075;53.988;27.678;2022-10-10T14:34:24;996.7;;;13.6;41
62980;BME280;49075;53.988;27.678;2022-10-10T14:39:00;996.7;;;13.4;41.5
62980;BME280;49075;53.988;27.678;2022-10-10T14:44:24;996.7;;;13.3;42.1
62980;BME280;49075;53.988;27.678;2022-10-10T14:48:54;996.6;;;13.3;42.8
62980;BME280;49075;53.988;27.678;2022-10-10T14:54:24;996.6;;;13.2;42.7
62980;BME280;49075;53.988;27.678;2022-10-10T14:58:52;996.6;;;13.1;44
62980;BME280;49075;53.988;27.678;2022-10-10T15:03:52;996.6;;;12.8;44.4
62980;BME280;49075;53.988;27.678;2022-10-10T15:09:22;996.6;;;12.5;45.4
62980;BME280;49075;53.988;27.678;2022-10-10T15:13:52;996.5;;;12.3;45.9
62980;BME280;49075;53.988;27.678;2022-10-10T15:19:02;996.5;;;12.1;47.2
62980;BME280;49075;53.988;27.678;2022-10-10T15:24:00;996.5;;;11.9;47.4
62980;BME280;49075;53.988;27.678;2022-10-10T15:28:52;996.5;;;11.6;48.6
62980;BME280;49075;53.988;27.678;2022-10-10T15:33:56;996.5;;;11.3;49
62980;BME280;49075;53.988;27.678;2022-10-10T15:39:26;996.5;;;11.1;50.1
62980;BME280;49075;53.988;27.678;2022-10-10T15:44:26;996.5;;;10.9;50.7
62980;BME280;49075;53.988;27.678;2022-10-10T15:48:58;996.5;;;10.8;51.9
62980;BME280;49075;53.988;27.678;2022-10-10T15:54:24;996.5;;;10.7;51.8
62980;BME280;49075;53.988;27.678;2022-10-10T15:59:24;996.5;;;10.5;52.6
62980;BME280;49075;53.988;27.678;2022-10-10T16:03:52;996.5;;;10.2;52.5
62980;BME280;49075;53.988;27.678;2022-10-10T16:08:44;996.5;;;10;53.5
62980;BME280;49075;53.988;27.678;2022-10-10T16:14:24;996.4;;;9.8;53.6
62980;BME280;49075;53.988;27.678;2022-10-10T16:18:52;996.4;;;9.6;54.8
62980;BME280;49075;53.988;27.678;2022-10-10T16:24:26;996.4;;;9.3;54.5
62980;BME280;49075;53.988;27.678;2022-10-10T16:28:44;996.4;;;9.1;55.7
62980;BME280;49075;53.988;27.678;2022-10-10T16:33:55;996.4;;;9;55.5
62980;BME280;49075;53.988;27.678;2022-10-10T16:39:22;996.4;;;8.8;56.7
62980;BME280;49075;53.988;27.678;2022-10-10T16:43:50;996.4;;;8.8;56.1
62980;BME280;49075;53.988;27.678;2022-10-10T16:48:56;996.4;;;8.8;56.8
62980;BME280;49075;53.988;27.678;2022-10-10T16:53:52;996.5;;;8.8;56.1
62980;BME280;49075;53.988;27.678;2022-10-10T16:58:52;996.5;;;8.7;56.7
62980;BME280;49075;53.988;27.678;2022-10-10T17:04:02;996.5;;;8.5;56.4
62980;BME280;49075;53.988;27.678;2022-10-10T17:09:24;996.5;;;8.3;57.5
62980;BME280;49075;53.988;27.678;2022-10-10T17:14:02;996.5;;;8.3;57
62980;BME280;49075;53.988;27.678;2022-10-10T17:18:54;996.4;;;8.1;57.8
62980;BME280;49075;53.988;27.678;2022-10-10T17:24:24;996.4;;;8.1;57.6
62980;BME280;49075;53.988;27.678;2022-10-10T17:29:00;996.3;;;8;58.1
62980;BME280;49075;53.988;27.678;2022-10-10T17:33:44;996.3;;;7.9;57.5
62980;BME280;49075;53.988;27.678;2022-10-10T17:38:42;996.3;;;7.9;57.3
62980;BME280;49075;53.988;27.678;2022-10-10T17:43:44;996.3;;;7.9;57
62980;BME280;49075;53.988;27.678;2022-10-10T17:49:01;996.3;;;7.9;57
62980;BME280;49075;53.988;27.678;2022-10-10T17:54:26;996.3;;;7.8;56.8
62980;BME280;49075;53.988;27.678;2022-10-10T17:59:05;996.3;;;7.7;57.4
62980;BME280;49075;53.988;27.678;2022-10-10T18:04:26;996.2;;;7.7;57.6
62980;BME280;49075;53.988;27.678;2022-10-10T18:08:45;996.1;;;7.5;58
62980;BME280;49075;53.988;27.678;2022-10-10T18:13:56;996.1;;;7.5;58.3
62980;BME280;49075;53.988;27.678;2022-10-10T18:19:28;996;;;7.4;58.4
62980;BME280;49075;53.988;27.678;2022-10-10T18:24:12;996;;;7.3;58.7
62980;BME280;49075;53.988;27.678;2022-10-10T18:29:28;996;;;7.2;58.7
62980;BME280;49075;53.988;27.678;2022-10-10T18:33:50;996;;;7.2;59.1
62980;BME280;49075;53.988;27.678;2022-10-10T18:39:26;996;;;7.2;59
62980;BME280;49075;53.988;27.678;2022-10-10T18:43:54;996;;;7.1;59.4
62980;BME280;49075;53.988;27.678;2022-10-10T18:49:24;996;;;7;59.6
62980;BME280;49075;53.988;27.678;2022-10-10T18:53:59;995.9;;;7;60.2
62980;BME280;49075;53.988;27.678;2022-10-10T18:59:24;995.9;;;6.9;60.1
62980;BME280;49075;53.988;27.678;2022-10-10T19:04:22;995.9;;;6.9;60.5
62980;BME280;49075;53.988;27.678;2022-10-10T19:09:03;995.8;;;6.9;59.9
62980;BME280;49075;53.988;27.678;2022-10-10T19:13:53;995.8;;;6.9;60.1
62980;BME280;49075;53.988;27.678;2022-10-10T19:19:09;995.8;;;6.9;59.7
62980;BME280;49075;53.988;27.678;2022-10-10T19:24:26;995.8;;;6.9;60.4
62980;BME280;49075;53.988;27.678;2022-10-10T19:28:52;995.8;;;6.9;59.9
62980;BME280;49075;53.988;27.678;2022-10-10T19:33:48;995.8;;;6.9;60.4
62980;BME280;49075;53.988;27.678;2022-10-10T19:38:44;995.7;;;6.8;60
62980;BME280;49075;53.988;27.678;2022-10-10T19:43:54;995.7;;;6.6;60.8
62980;BME280;49075;53.988;27.678;2022-10-10T19:48:54;995.8;;;6.6;60.5
62980;BME280;49075;53.988;27.678;2022-10-10T19:54:26;995.7;;;6.5;60.9
62980;BME280;49075;53.988;27.678;2022-10-10T19:59:26;995.7;;;6.5;60.4
62980;BME280;49075;53.988;27.678;2022-10-10T20:04:00;995.7;;;6.5;60.9
62980;BME280;49075;53.988;27.678;2022-10-10T20:08:58;995.7;;;6.4;60.6
62980;BME280;49075;53.988;27.678;2022-10-10T20:13:50;995.7;;;6.3;61.3
62980;BME280;49075;53.988;27.678;2022-10-10T20:18:53;995.7;;;6.2;60.9
62980;BME280;49075;53.988;27.678;2022-10-10T20:23:59;995.7;;;6.1;61.5
62980;BME280;49075;53.988;27.678;2022-10-10T20:29:24;995.6;;;6;61.3
62980;BME280;49075;53.988;27.678;2022-10-10T20:34:24;995.6;;;5.9;61.3
62980;BME280;49075;53.988;27.678;2022-10-10T20:39:24;995.5;;;5.8;61
62980;BME280;49075;53.988;27.678;2022-10-10T20:44:24;995.4;;;5.8;61.2
62980;BME280;49075;53.988;27.678;2022-10-10T20:49:03;995.4;;;5.9;60.5
62980;BME280;49075;53.988;27.678;2022-10-10T20:54:00;995.4;;;5.8;60.8
62980;BME280;49075;53.988;27.678;2022-10-10T20:59:24;995.3;;;5.8;60.8
62980;BME280;49075;53.988;27.678;2022-10-10T21:04:26;995.3;;;5.7;60.7
62980;BME280;49075;53.988;27.678;2022-10-10T21:09:24;995.3;;;5.7;60.8
62980;BME280;49075;53.988;27.678;2022-10-10T21:14:24;995.3;;;5.6;60.6
62980;BME280;49075;53.988;27.678;2022-10-10T21:19:26;995.2;;;5.6;60.7
62980;BME280;49075;53.988;27.678;2022-10-10T21:23:52;995.2;;;5.6;60.5
62980;BME280;49075;53.988;27.678;2022-10-10T21:29:06;995.2;;;5.4;60.8
62980;BME280;49075;53.988;27.678;2022-10-10T21:33:59;995.2;;;5.4;60.3
62980;BME280;49075;53.988;27.678;2022-10-10T21:38:51;995.1;;;5.3;60.4
62980;BME280;49075;53.988;27.678;2022-10-10T21:44:28;995.2;;;5.3;60.3
62980;BME280;49075;53.988;27.678;2022-10-10T21:48:55;995.1;;;5.2;60.5
62980;BME280;49075;53.988;27.678;2022-10-10T21:54:28;995.1;;;5.1;60.2
62980;BME280;49075;53.988;27.678;2022-10-10T21:58:44;995.1;;;5.1;60.1
62980;BME280;49075;53.988;27.678;2022-10-10T22:04:28;995.1;;;5.1;59.8
62980;BME280;49075;53.988;27.678;2022-10-10T22:08:54;995;;;5.1;60.2
62980;BME280;49075;53.988;27.678;2022-10-10T22:14:28;995;;;5;60.1
62980;BME280;49075;53.988;27.678;2022-10-10T22:18:53;995;;;4.9;60.4
62980;BME280;49075;53.988;27.678;2022-10-10T22:23:57;995;;;4.9;60.2
62980;BME280;49075;53.988;27.678;2022-10-10T22:29:08;994.9;;;4.8;60.7
62980;BME280;49075;53.988;27.678;2022-10-10T22:33:54;994.9;;;4.8;60.3
62980;BME280;49075;53.988;27.678;2022-10-10T22:38:54;994.9;;;4.7;60.8
62980;BME280;49075;53.988;27.678;2022-10-10T22:44:03;994.9;;;4.7;60.5
62980;BME280;49075;53.988;27.678;2022-10-10T22:48:52;994.8;;;4.6;60.9
62980;BME280;49075;53.988;27.678;2022-10-10T22:54:06;994.8;;;4.6;60.6
62980;BME280;49075;53.988;27.678;2022-10-10T22:58:52;994.8;;;4.6;60.7
62980;BME280;49075;53.988;27.678;2022-10-10T23:04:22;994.8;;;4.5;60.8
62980;BME280;49075;53.988;27.678;2022-10-10T23:09:24;994.7;;;4.4;61.2
62980;BME280;49075;53.988;27.678;2022-10-10T23:13:44;994.7;;;4.4;61
62980;BME280;49075;53.988;27.678;2022-10-10T23:19:26;994.7;;;4.3;61.1
62980;BME280;49075;53.988;27.678;2022-10-10T23:23:54;994.7;;;4.3;61
62980;BME280;49075;53.988;27.678;2022-10-10T23:29:04;994.7;;;4.2;60.8
62980;BME280;49075;53.988;27.678;2022-10-10T23:33:54;994.6;;;4.2;60.9
62980;BME280;49075;53.988;27.678;2022-10-10T23:38:53;994.5;;;4.1;60.8
62980;BME280;49075;53.988;27.678;2022-10-10T23:44:24;994.5;;;4.1;60.3
62980;BME280;49075;53.988;27.678;2022-10-10T23:49:22;994.4;;;4.1;60.4
62980;BME280;49075;53.988;27.678;2022-10-10T23:54:24;994.4;;;4.1;60.2
62980;BME280;49075;53.988;27.678;2022-10-10T23:59:24;994.4;;;4.1;60.5
